Ferguson, Iowa
Current Conditions -  °F | °C
As of 9:53 PM on Saturday 20 Dec 2014 (Local Time) from KMIW Reporting Station
Moderate Fog Moderate Fog  
Wind Chill: 26°   Ceiling: 200
Heat Index: 33°   Visibility: 0.25mi
Dew Point: 33°   Wind: 8mph
Humidity: 100%   Direction: 150°SSE
Pressure: 30.11"   Gusts: NA
Location:  41.94°N, 92.87°W
Report Text: KMIW 210353Z AUTO 15007KT 1/4SM FG VV002 01/01 A3011 RMK AO2 SLP205 T00060006
Loading
Personal Weather Stations






























Interactive Weather Map New forecast layout! Learn more

10-Day Weather Forecast

Advertisements
Track Severe Weather on mobile